createdAt,value
2023-02-18T00:00:19.433Z,7.40
2023-02-18T00:06:32.842Z,7.40
2023-02-18T00:12:34.822Z,7.40
2023-02-18T00:18:37.329Z,7.40
2023-02-18T00:24:39.179Z,7.40
2023-02-18T00:30:44.031Z,7.30
2023-02-18T00:36:45.745Z,7.10
2023-02-18T00:42:47.564Z,7.00
2023-02-18T00:48:49.340Z,6.90
2023-02-18T00:54:51.083Z,7.00
2023-02-18T01:00:53.054Z,7.20
2023-02-18T01:06:54.821Z,7.30
2023-02-18T01:12:56.690Z,7.50
2023-02-18T01:18:58.718Z,7.50
2023-02-18T01:25:00.788Z,7.60
2023-02-18T01:31:07.634Z,7.70
2023-02-18T01:37:09.507Z,7.70
2023-02-18T01:43:13.217Z,7.80
2023-02-18T01:49:21.055Z,7.80
2023-02-18T01:55:22.982Z,7.80
2023-02-18T02:01:26.752Z,7.90
2023-02-18T02:07:29.635Z,7.80
2023-02-18T02:14:02.048Z,7.90
2023-02-18T02:20:19.141Z,8.00
2023-02-18T02:26:52.177Z,8.00
2023-02-18T02:33:12.019Z,8.10
2023-02-18T02:39:28.870Z,8.00
2023-02-18T02:45:45.990Z,8.10
2023-02-18T02:52:10.376Z,8.10
2023-02-18T02:58:16.858Z,8.10
2023-02-18T03:04:47.631Z,8.10
2023-02-18T03:11:01.544Z,8.10
2023-02-18T03:17:11.880Z,8.10
2023-02-18T03:23:20.193Z,8.10
2023-02-18T03:29:22.892Z,8.10
2023-02-18T03:35:25.787Z,8.20
2023-02-18T03:41:27.750Z,8.30
2023-02-18T03:47:29.696Z,8.40
2023-02-18T03:53:31.499Z,8.50
2023-02-18T03:59:33.716Z,8.60
2023-02-18T04:05:36.627Z,8.80
2023-02-18T04:11:39.852Z,8.80
2023-02-18T04:17:41.816Z,8.70
2023-02-18T04:23:43.593Z,8.70
2023-02-18T04:29:45.461Z,8.70
2023-02-18T04:35:49.419Z,8.80
2023-02-18T04:41:51.227Z,8.80
2023-02-18T04:47:53.617Z,8.80
2023-02-18T04:53:55.417Z,8.80
2023-02-18T04:59:57.275Z,8.80
2023-02-18T05:05:59.340Z,8.80
2023-02-18T05:12:01.111Z,8.80
2023-02-18T05:18:02.891Z,8.80
2023-02-18T05:24:05.053Z,8.80
2023-02-18T05:30:07.654Z,8.80
2023-02-18T05:36:09.943Z,8.90
2023-02-18T05:42:11.833Z,9.00
2023-02-18T05:48:13.675Z,9.10
2023-02-18T05:54:15.614Z,9.20
2023-02-18T06:00:17.826Z,9.20
2023-02-18T06:06:19.668Z,9.20
2023-02-18T06:12:21.567Z,9.30
2023-02-18T06:18:23.372Z,9.30
2023-02-18T06:24:25.130Z,9.30
2023-02-18T06:30:26.994Z,9.40
2023-02-18T06:36:28.858Z,9.40
2023-02-18T06:42:30.732Z,9.50
2023-02-18T06:48:32.622Z,9.40
2023-02-18T06:54:34.754Z,9.50
2023-02-18T07:00:39.831Z,9.50
2023-02-18T07:06:41.725Z,9.50
2023-02-18T07:12:43.562Z,9.50
2023-02-18T07:18:46.702Z,9.50
2023-02-18T07:24:54.930Z,9.60
2023-02-18T07:30:56.728Z,9.50
2023-02-18T07:36:58.434Z,9.60
2023-02-18T07:43:00.236Z,9.60
2023-02-18T07:49:02.029Z,9.70
2023-02-18T07:55:04.352Z,9.70
2023-02-18T08:01:11.952Z,9.70
2023-02-18T08:07:19.274Z,9.70
2023-02-18T08:13:21.074Z,9.70
2023-02-18T08:19:23.252Z,9.80
2023-02-18T08:25:29.627Z,9.80
2023-02-18T08:31:32.289Z,9.80
2023-02-18T08:37:53.021Z,9.80
2023-02-18T08:43:55.964Z,9.80
2023-02-18T08:49:57.872Z,9.90
2023-02-18T08:55:59.682Z,9.90
2023-02-18T09:02:01.535Z,9.90
2023-02-18T09:08:03.380Z,9.90
2023-02-18T09:14:05.291Z,9.90
2023-02-18T09:20:10.750Z,10.00
2023-02-18T09:26:15.054Z,10.00
2023-02-18T09:32:32.589Z,10.00
2023-02-18T09:38:37.080Z,10.10
2023-02-18T09:44:50.932Z,10.20
2023-02-18T09:50:53.548Z,10.10
2023-02-18T09:56:55.697Z,10.10
2023-02-18T10:03:05.173Z,10.10
2023-02-18T10:09:21.713Z,10.20
2023-02-18T10:15:29.994Z,10.10
2023-02-18T10:21:36.149Z,10.00
2023-02-18T10:27:39.337Z,10.00
2023-02-18T10:33:56.700Z,10.00
2023-02-18T10:40:13.905Z,9.90
2023-02-18T10:46:31.834Z,9.90
2023-02-18T10:52:42.361Z,10.00
2023-02-18T10:58:47.579Z,9.90
2023-02-18T11:04:50.311Z,9.90
2023-02-18T11:10:52.893Z,9.80
2023-02-18T11:16:56.523Z,9.70
2023-02-18T11:23:13.321Z,9.70
2023-02-18T11:29:24.278Z,9.70
2023-02-18T11:35:30.588Z,9.60
2023-02-18T11:41:38.652Z,9.60
2023-02-18T11:47:40.444Z,9.60
2023-02-18T11:53:53.951Z,9.60
2023-02-18T11:59:59.442Z,9.50
2023-02-18T12:06:12.587Z,9.50
2023-02-18T12:12:25.764Z,9.40
2023-02-18T12:18:43.254Z,9.40
2023-02-18T12:24:59.088Z,9.40
2023-02-18T12:31:26.219Z,9.40
2023-02-18T12:37:46.188Z,9.40
2023-02-18T12:44:34.333Z,9.30
2023-02-18T12:50:44.052Z,9.40
2023-02-18T12:56:57.360Z,9.50
2023-02-18T13:03:28.058Z,9.50
2023-02-18T13:10:09.098Z,9.50
2023-02-18T13:16:15.147Z,9.40
2023-02-18T13:22:19.986Z,9.40
2023-02-18T13:28:32.138Z,9.50
2023-02-18T13:34:50.097Z,9.60
2023-02-18T13:40:52.512Z,9.60
2023-02-18T13:46:59.186Z,9.50
2023-02-18T13:53:09.780Z,9.50
2023-02-18T13:59:16.156Z,9.50
2023-02-18T14:05:23.611Z,9.60
2023-02-18T14:11:36.988Z,9.60
2023-02-18T14:17:42.606Z,9.60
2023-02-18T14:23:57.492Z,9.60
2023-02-18T14:30:07.378Z,9.70
2023-02-18T14:36:36.797Z,9.70
2023-02-18T14:42:53.569Z,9.70
2023-02-18T14:49:26.089Z,9.60
2023-02-18T14:55:32.426Z,9.70
2023-02-18T15:01:36.692Z,9.70
2023-02-18T15:07:38.754Z,9.70
2023-02-18T15:13:46.196Z,9.80
2023-02-18T15:19:53.982Z,9.80
2023-02-18T15:25:56.324Z,9.80
2023-02-18T15:31:59.099Z,9.80
2023-02-18T15:38:01.781Z,9.90
2023-02-18T15:44:06.549Z,9.80
2023-02-18T15:50:19.377Z,9.80
2023-02-18T15:56:27.305Z,9.70
2023-02-18T16:02:30.646Z,9.80
2023-02-18T16:08:32.463Z,9.80
2023-02-18T16:14:49.186Z,9.80
2023-02-18T16:21:01.392Z,9.80
2023-02-18T16:27:14.747Z,9.80
2023-02-18T16:33:16.543Z,9.80
2023-02-18T16:39:18.398Z,9.80
2023-02-18T16:45:21.878Z,9.80
2023-02-18T16:51:33.100Z,9.80
2023-02-18T16:57:35.122Z,9.90
2023-02-18T17:03:37.191Z,9.90
2023-02-18T17:09:39.230Z,9.90
2023-02-18T17:15:42.799Z,9.80
2023-02-18T17:21:47.613Z,9.80
2023-02-18T17:27:50.511Z,9.80
2023-02-18T17:34:00.802Z,9.80
2023-02-18T17:40:02.640Z,9.70
2023-02-18T17:46:05.081Z,9.60
2023-02-18T17:52:06.970Z,9.70
2023-02-18T17:58:09.817Z,9.60
2023-02-18T18:04:14.496Z,9.60
2023-02-18T18:10:17.260Z,9.60
2023-02-18T18:16:19.692Z,9.60
2023-02-18T18:22:21.583Z,9.60
2023-02-18T18:28:24.999Z,9.50
2023-02-18T18:34:26.821Z,9.40
2023-02-18T18:40:31.745Z,9.30
2023-02-18T18:46:33.840Z,9.30
2023-02-18T18:52:35.648Z,9.30
2023-02-18T18:58:37.424Z,9.30
2023-02-18T19:04:39.300Z,9.20
2023-02-18T19:10:53.431Z,9.20
2023-02-18T19:16:56.152Z,9.20
2023-02-18T19:22:58.329Z,9.10
2023-02-18T19:29:00.139Z,9.10
2023-02-18T19:35:02.034Z,9.10
2023-02-18T19:41:14.606Z,9.10
2023-02-18T19:47:16.455Z,9.20
2023-02-18T19:53:18.163Z,9.20
2023-02-18T19:59:19.911Z,9.20
2023-02-18T20:05:21.852Z,9.10
2023-02-18T20:11:23.637Z,9.10
2023-02-18T20:17:25.735Z,9.20
2023-02-18T20:23:27.547Z,9.10
2023-02-18T20:29:29.949Z,9.20
2023-02-18T20:35:31.732Z,9.20
2023-02-18T20:41:33.574Z,9.10
2023-02-18T20:47:35.472Z,9.10
2023-02-18T20:53:38.599Z,9.10
2023-02-18T20:59:40.501Z,9.10
2023-02-18T21:05:42.270Z,9.20
2023-02-18T21:11:44.922Z,9.20
2023-02-18T21:17:46.692Z,9.10
2023-02-18T21:23:48.429Z,9.00
2023-02-18T21:29:50.344Z,9.00
2023-02-18T21:35:52.596Z,9.00
2023-02-18T21:41:54.337Z,9.00
2023-02-18T21:47:58.024Z,9.00
2023-02-18T21:53:59.735Z,9.00
2023-02-18T22:00:08.419Z,8.90
2023-02-18T22:06:16.733Z,9.00
2023-02-18T22:12:18.520Z,9.00
2023-02-18T22:18:20.252Z,8.90
2023-02-18T22:24:22.163Z,8.90
2023-02-18T22:30:24.066Z,8.90
2023-02-18T22:36:27.828Z,8.80
2023-02-18T22:42:29.659Z,8.80
2023-02-18T22:48:33.336Z,8.80
2023-02-18T22:54:35.151Z,8.80
2023-02-18T23:00:37.027Z,8.70
2023-02-18T23:06:41.269Z,8.70
2023-02-18T23:12:43.013Z,8.70
2023-02-18T23:18:44.803Z,8.60
2023-02-18T23:24:47.399Z,8.60
2023-02-18T23:30:49.193Z,8.60
2023-02-18T23:36:50.997Z,8.60
2023-02-18T23:42:56.493Z,8.60
2023-02-18T23:49:01.962Z,8.50
2023-02-18T23:55:03.827Z,8.50
